Data for 01/09/2011

Time Sea-Level Adjusted Pressure Absolute Pressure Temperature Relative Humidity Dew Point   
(mb) (inHg) (mb) (inHg) (C) (F) (%) (C) (F)
00:05 1010 29.83 840 24.81 -7.9 17.8 64 -13.6 7.6
00:10 1010 29.83 840 24.81 -8 17.7 63 -13.8 7.1
00:15 1010 29.83 840 24.81 -8.1 17.5 66 -13.3 8.1
00:20 1010 29.83 839 24.78 -8.4 17 68 -13.3 8
00:25 1010 29.83 839 24.78 -8.8 16.2 70 -13.3 8.1
00:30 1010 29.83 840 24.81 -8.8 16.2 73 -12.9 8.9
00:35 1010 29.83 840 24.81 -8.6 16.5 75 -12.2 10
00:40 1010 29.83 840 24.81 -8.4 16.9 73 -12.4 9.6
00:45 1010 29.83 840 24.81 -8.3 17 73 -12.3 9.9
00:50 1010 29.83 840 24.81 -8.2 17.3 72 -12.5 9.6
00:55 1010 29.83 840 24.81 -8.2 17.3 71 -12.6 9.4
01:00 1010 29.83 840 24.81 -8 17.6 71 -12.4 9.6
01:05 1010 29.83 840 24.81 -8.1 17.4 70 -12.6 9.3
01:10 1010 29.83 840 24.81 -8.1 17.5 71 -12.5 9.5
01:15 1010 29.83 840 24.81 -8.2 17.3 71 -12.5 9.5
01:20 1010 29.83 840 24.81 -8.2 17.2 71 -12.5 9.5
01:25 1010 29.83 840 24.81 -8.5 16.7 72 -12.6 9.2
01:30 1010 29.83 840 24.81 -8.6 16.5 72 -12.7 9.1
01:35 1010 29.83 840 24.81 -8.7 16.3 73 -12.8 9
01:40 1011 29.85 840 24.81 -8.8 16.1 73 -12.9 8.9
01:45 1011 29.85 840 24.81 -9 15.9 73 -13 8.5
01:50 1011 29.85 840 24.81 -9.3 15.3 74 -13.2 8.3
01:55 1011 29.85 840 24.81 -9.6 14.6 74 -13.4 7.8
02:00 1011 29.85 840 24.81 -10 14.1 74 -13.7 7.3
02:05 1011 29.85 840 24.81 -10.5 13 76 -14 6.8
02:10 1011 29.85 840 24.81 -10.4 13.2 76 -13.9 7
02:15 1011 29.85 840 24.81 -10.5 13.1 76 -13.9 6.9
02:20 1011 29.85 840 24.81 -10.6 13 74 -14.3 6.3
02:25 1011 29.85 840 24.81 -10.8 12.5 75 -14.5 5.9
02:30 1011 29.85 840 24.81 -11.5 11.4 78 -14.5 5.9
02:35 1011 29.85 841 24.83 -11.9 10.6 80 -14.7 5.6
02:40 1011 29.85 841 24.83 -12.1 10.2 81 -14.7 5.5
02:45 1012 29.88 841 24.83 -12 10.5 80 -14.8 5.4
02:50 1012 29.88 841 24.83 -11.5 11.2 79 -14.5 5.8
02:55 1012 29.88 841 24.83 -11.4 11.5 79 -14.3 6.2
03:00 1012 29.88 841 24.83 -11.4 11.4 80 -14.2 6.4
03:05 1012 29.88 841 24.83 -11.2 11.8 80 -14 6.9
03:10 1012 29.88 841 24.83 -10.9 12.4 79 -13.8 7.2
03:15 1012 29.88 841 24.83 -10.6 12.9 80 -13.5 7.8
03:20 1012 29.88 841 24.83 -10.5 13.2 82 -13 8.7
03:25 1012 29.88 841 24.83 -10.3 13.4 84 -12.6 9.3
03:30 1012 29.88 841 24.83 -10.4 13.4 86 -12.3 9.9
03:35 1012 29.88 841 24.83 -10.3 13.6 87 -12 10.4
03:40 1012 29.88 841 24.83 -10.2 13.7 88 -11.8 10.7
03:45 1012 29.88 841 24.83 -10.2 13.6 88 -11.9 10.7
03:50 1012 29.88 841 24.83 -10.2 13.6 87 -11.9 10.5
03:55 1012 29.88 842 24.86 -10.4 13.3 87 -12.1 10.3
04:00 1012 29.88 841 24.83 -10.7 12.7 88 -12.4 9.7
04:05 1012 29.88 841 24.83 -10.9 12.4 89 -12.4 9.6
04:10 1012 29.88 841 24.83 -10.7 12.8 88 -12.2 10
04:15 1012 29.88 841 24.83 -10.5 13.2 88 -12.1 10.1
04:20 1012 29.88 842 24.86 -10.4 13.3 87 -12.1 10.2
04:25 1012 29.88 842 24.86 -10.4 13.2 87 -12.2 10.1
04:30 1012 29.88 842 24.86 -10.5 13.2 87 -12.2 10.1
04:35 1012 29.88 842 24.86 -10.5 13.1 87 -12.3 9.9
04:40 1013 29.91 842 24.86 -10.6 12.9 87 -12.3 9.8
04:45 1013 29.91 842 24.86 -10.7 12.8 87 -12.4 9.6
04:50 1013 29.91 842 24.86 -10.8 12.5 86 -12.7 9.2
04:55 1013 29.91 842 24.86 -11 12.3 87 -12.7 9.1
05:00 1013 29.91 842 24.86 -11 12.2 86 -12.8 8.9
05:05 1013 29.91 842 24.86 -11 12.2 87 -12.8 9
05:10 1013 29.91 842 24.86 -11 12.1 86 -12.9 8.7
05:15 1013 29.91 842 24.86 -11.1 12.1 86 -13 8.6
05:20 1013 29.91 842 24.86 -11.1 12.1 85 -13.1 8.5
05:25 1013 29.91 842 24.86 -11.2 11.9 86 -13.1 8.5
05:30 1013 29.91 842 24.86 -11.2 11.8 86 -13.2 8.3
05:35 1013 29.91 842 24.86 -11.3 11.7 86 -13.2 8.3
05:40 1013 29.91 842 24.86 -11.3 11.6 86 -13.2 8.2
05:45 1013 29.91 842 24.86 -11.4 11.5 86 -13.3 8.1
05:50 1013 29.91 842 24.86 -11.4 11.5 85 -13.4 7.9
05:55 1013 29.91 842 24.86 -11.4 11.5 86 -13.4 7.9
06:00 1013 29.91 842 24.86 -11.4 11.4 86 -13.3 8.1
06:05 1013 29.91 842 24.86 -11.4 11.6 86 -13.3 8.1
06:10 1013 29.91 842 24.86 -11.4 11.5 85 -13.4 7.9
06:15 1013 29.91 842 24.86 -11.5 11.4 86 -13.4 7.9
06:20 1013 29.91 842 24.86 -11.4 11.5 86 -13.4 8
06:25 1013 29.91 842 24.86 -11.3 11.7 86 -13.2 8.3
06:30 1013 29.91 842 24.86 -11.3 11.7 85 -13.3 8
06:35 1013 29.91 842 24.86 -11.5 11.3 86 -13.3 8
06:40 1013 29.91 842 24.86 -11.5 11.2 87 -13.4 8
06:45 1013 29.91 842 24.86 -11.5 11.3 86 -13.4 7.9
06:50 1013 29.91 842 24.86 -11.5 11.3 86 -13.4 7.8
06:55 1013 29.91 842 24.86 -11.6 11.2 86 -13.5 7.7
07:00 1013 29.91 842 24.86 -11.6 11.2 85 -13.6 7.5
07:05 1013 29.91 842 24.86 -11.7 11 85 -13.7 7.4
07:10 1013 29.91 842 24.86 -11.8 10.9 87 -13.5 7.6
07:15 1013 29.91 842 24.86 -11.7 10.9 87 -13.4 7.8
07:20 1013 29.91 842 24.86 -11.7 11 87 -13.4 7.9
07:25 1013 29.91 842 24.86 -11.8 10.9 87 -13.5 7.7
07:30 1013 29.91 842 24.86 -11.9 10.5 86 -13.8 7.1
07:35 1013 29.91 842 24.86 -12.1 10.2 86 -14 6.8
07:40 1013 29.91 842 24.86 -12.3 9.9 86 -14.1 6.5
07:45 1013 29.91 842 24.86 -12.3 9.8 86 -14.3 6.3
07:50 1013 29.91 843 24.89 -12.3 9.8 86 -14.3 6.3
07:55 1013 29.91 843 24.89 -12.3 9.8 85 -14.4 6.1
08:00 1013 29.91 843 24.89 -12.4 9.6 85 -14.4 6
08:05 1013 29.91 843 24.89 -12.5 9.6 85 -14.4 6
08:10 1014 29.94 843 24.89 -12.5 9.4 85 -14.5 5.9
08:15 1014 29.94 843 24.89 -12.6 9.3 86 -14.5 5.8
08:20 1014 29.94 843 24.89 -12.5 9.4 85 -14.5 5.9
08:25 1014 29.94 843 24.89 -12.6 9.4 87 -14.4 6.1
08:30 1014 29.94 843 24.89 -12.6 9.4 85 -14.5 5.9
08:35 1014 29.94 843 24.89 -12.6 9.3 86 -14.5 6
08:40 1014 29.94 843 24.89 -12.5 9.4 86 -14.4 6
08:45 1014 29.94 843 24.89 -12.5 9.6 84 -14.6 5.8
08:50 1014 29.94 843 24.89 -12.4 9.8 85 -14.4 6.1
08:55 1014 29.94 843 24.89 -12.2 10.1 85 -14.3 6.3
09:00 1014 29.94 843 24.89 -12.2 10.1 84 -14.3 6.2
09:05 1014 29.94 843 24.89 -12.1 10.3 83 -14.4 6.1
09:10 1014 29.94 843 24.89 -12.1 10.3 83 -14.4 6.1
09:15 1014 29.94 844 24.92 -12.1 10.2 84 -14.3 6.2
09:20 1014 29.94 844 24.92 -12.1 10.3 84 -14.3 6.3
09:25 1014 29.94 844 24.92 -12 10.4 83 -14.4 6.1
09:30 1015 29.97 844 24.92 -12.1 10.3 83 -14.4 6.1
09:35 1015 29.97 844 24.92 -12.1 10.2 83 -14.4 6.1
09:40 1015 29.97 844 24.92 -12.1 10.2 82 -14.5 5.9
09:45 1015 29.97 844 24.92 -12.2 10.1 83 -14.6 5.8
09:50 1015 29.97 844 24.92 -12.2 10.1 82 -14.7 5.5
09:55 1015 29.97 844 24.92 -12.2 10.1 81 -14.8 5.4
10:00 1015 29.97 844 24.92 -12.1 10.3 81 -14.7 5.5
10:05 1015 29.97 844 24.92 -12 10.4 81 -14.7 5.6
10:10 1015 29.97 844 24.92 -11.9 10.5 79 -14.8 5.4
10:15 1015 29.97 844 24.92 -12 10.5 80 -14.7 5.5
10:20 1015 29.97 844 24.92 -11.9 10.6 80 -14.7 5.6
10:25 1015 29.97 844 24.92 -11.9 10.6 80 -14.7 5.5
10:30 1015 29.97 844 24.92 -11.9 10.6 79 -14.8 5.3
10:35 1015 29.97 844 24.92 -11.9 10.6 79 -14.8 5.3
10:40 1015 29.97 844 24.92 -11.9 10.5 79 -14.8 5.3
10:45 1015 29.97 844 24.92 -11.7 10.9 79 -14.6 5.7
10:50 1015 29.97 844 24.92 -11.7 11 78 -14.8 5.4
10:55 1015 29.97 844 24.92 -11.6 11.1 77 -14.9 5.2
11:00 1015 29.97 844 24.92 -11.4 11.5 77 -14.6 5.7
11:05 1015 29.97 844 24.92 -11.2 11.9 75 -14.7 5.5
11:10 1015 29.97 844 24.92 -11.1 12.1 75 -14.7 5.6
11:15 1015 29.97 844 24.92 -11 12.2 73 -14.9 5.2
11:20 1015 29.97 844 24.92 -10.9 12.4 76 -14.4 6.1
11:25 1015 29.97 844 24.92 -10.6 12.9 74 -14.5 5.9
11:30 1015 29.97 844 24.92 -10.3 13.5 71 -14.6 5.8
11:35 1015 29.97 844 24.92 -10.6 13 73 -14.4 6
11:40 1015 29.97 844 24.92 -10.4 13.2 72 -14.6 5.8
11:45 1015 29.97 844 24.92 -10.5 13 72 -14.6 5.7
11:50 1015 29.97 844 24.92 -10.6 13 72 -14.6 5.7
11:55 1015 29.97 844 24.92 -10.6 13 72 -14.8 5.4
12:00 1015 29.97 844 24.92 -10.6 12.9 70 -15.1 4.8
12:05 1015 29.97 844 24.92 -10.6 13 69 -15.2 4.6
12:10 1015 29.97 844 24.92 -10.4 13.2 69 -15.1 4.9
12:15 1015 29.97 844 24.92 -10.5 13.1 69 -15.1 4.8
12:20 1015 29.97 844 24.92 -9.8 14.3 67 -14.9 5.2
12:25 1015 29.97 844 24.92 -9.7 14.5 66 -14.9 5.1
12:30 1015 29.97 844 24.92 -9.6 14.7 65 -15.1 4.9
12:35 1015 29.97 844 24.92 -9.4 15.1 67 -14.5 5.9
12:40 1015 29.97 844 24.92 -9.8 14.4 67 -14.9 5.2
12:45 1015 29.97 844 24.92 -10.3 13.5 68 -15.1 4.7
12:50 1015 29.97 844 24.92 -10.8 12.6 70 -15.2 4.6
12:55 1015 29.97 844 24.92 -11.1 12 74 -14.9 5.2
13:00 1015 29.97 844 24.92 -11.1 12 72 -15.2 4.7
13:05 1015 29.97 844 24.92 -11 12.2 70 -15.4 4.3
13:10 1015 29.97 844 24.92 -10.9 12.4 68 -15.7 3.8
13:15 1015 29.97 844 24.92 -10.7 12.8 68 -15.5 4
13:20 1015 29.97 844 24.92 -10.3 13.4 67 -15.3 4.4
13:25 1015 29.97 844 24.92 -11 12.2 69 -15.6 4
13:30 1015 29.97 844 24.92 -11 12.2 70 -15.4 4.3
13:35 1015 29.97 844 24.92 -10.3 13.5 65 -15.6 3.9
13:40 1015 29.97 844 24.92 -9.9 14.2 64 -15.6 4
13:45 1015 29.97 844 24.92 -10.5 13.1 65 -15.8 3.5
13:50 1015 29.97 844 24.92 -10.9 12.5 68 -15.7 3.8
13:55 1015 29.97 844 24.92 -10.9 12.4 69 -15.6 4
14:00 1015 29.97 844 24.92 -10.6 13 66 -15.6 3.8
14:05 1015 29.97 844 24.92 -10.6 12.9 68 -15.4 4.2
14:10 1015 29.97 844 24.92 -10.7 12.8 66 -15.8 3.6
14:15 1015 29.97 844 24.92 -10.7 12.8 65 -16 3.2
14:20 1015 29.97 844 24.92 -10.6 12.9 67 -15.6 4
14:25 1015 29.97 844 24.92 -10.7 12.8 68 -15.6 4
14:30 1015 29.97 844 24.92 -10.8 12.5 68 -15.6 3.9
14:35 1015 29.97 844 24.92 -11.3 11.7 69 -15.9 3.4
14:40 1015 29.97 845 24.95 -11.7 11 72 -15.8 3.6
14:45 1015 29.97 845 24.95 -11.9 10.5 73 -15.8 3.5
14:50 1015 29.97 845 24.95 -11.8 10.8 71 -16 3.3
14:55 1016 30 845 24.95 -11.6 11.1 72 -15.8 3.6
15:00 1016 30 845 24.95 -11.6 11.1 70 -16 3.2
15:05 1016 30 845 24.95 -11.6 11.1 72 -15.7 3.8
15:10 1016 30 845 24.95 -11.8 10.7 73 -15.7 3.7
15:15 1016 30 845 24.95 -11.8 10.8 74 -15.6 4
15:20 1016 30 845 24.95 -11.7 11 74 -15.4 4.2
15:25 1016 30 845 24.95 -11.8 10.8 74 -15.5 4.2
15:30 1016 30 845 24.95 -11.8 10.8 75 -15.4 4.3
15:35 1016 30 845 24.95 -11.8 10.7 75 -15.4 4.3
15:40 1016 30 845 24.95 -11.8 10.7 75 -15.4 4.3
15:45 1016 30 845 24.95 -11.8 10.7 74 -15.5 4
15:50 1016 30 845 24.95 -12 10.3 75 -15.7 3.8
15:55 1016 30 845 24.95 -12 10.4 74 -15.7 3.7
16:00 1016 30 845 24.95 -12.2 10 76 -15.7 3.8
16:05 1016 30 845 24.95 -12.4 9.6 77 -15.8 3.6
16:10 1016 30 845 24.95 -12.4 9.7 76 -15.8 3.5
16:15 1016 30 845 24.95 -12.4 9.7 75 -15.9 3.3
16:20 1016 30 845 24.95 -12.7 9.1 79 -15.6 3.9
16:25 1016 30 846 24.98 -12.8 9 79 -15.7 3.7
16:30 1016 30 846 24.98 -12.9 8.9 78 -15.9 3.4
16:35 1017 30.03 846 24.98 -13.1 8.5 80 -15.8 3.5
16:40 1017 30.03 846 24.98 -12.9 8.7 79 -15.9 3.5
16:45 1017 30.03 846 24.98 -13 8.7 80 -15.8 3.6
16:50 1017 30.03 846 24.98 -13 8.5 80 -15.8 3.6
16:55 1017 30.03 846 24.98 -13.1 8.4 79 -16 3.2
17:00 1017 30.03 846 24.98 -13.2 8.2 80 -16 3.3
17:05 1017 30.03 846 24.98 -13.4 7.9 80 -16.1 3
17:10 1017 30.03 846 24.98 -13.5 7.6 80 -16.3 2.7
17:15 1017 30.03 846 24.98 -13.6 7.5 80 -16.4 2.6
17:20 1017 30.03 846 24.98 -13.7 7.3 79 -16.5 2.2
17:25 1017 30.03 846 24.98 -13.8 7.1 79 -16.7 2
17:30 1017 30.03 846 24.98 -14 6.9 80 -16.7 1.9
17:35 1017 30.03 846 24.98 -14.1 6.7 80 -16.7 1.9
17:40 1017 30.03 846 24.98 -14.1 6.7 80 -16.8 1.8
17:45 1017 30.03 846 24.98 -14.2 6.5 81 -16.8 1.8
17:50 1017 30.03 846 24.98 -14.2 6.4 80 -17 1.4
17:55 1017 30.03 846 24.98 -14.3 6.2 80 -17.1 1.2
18:00 1017 30.03 846 24.98 -14.4 6 80 -17.2 1
18:05 1017 30.03 846 24.98 -14.5 6 79 -17.3 0.8
18:10 1017 30.03 846 24.98 -14.5 6 77 -17.7 0.1
18:15 1017 30.03 847 25.01 -14.3 6.2 76 -17.7 0.2
18:20 1017 30.03 847 25.01 -14.3 6.3 75 -17.8 -0.1
18:25 1017 30.03 847 25.01 -14.3 6.2 75 -17.9 -0.1
18:30 1017 30.03 847 25.01 -14.4 6.1 74 -18 -0.5
18:35 1017 30.03 847 25.01 -14.4 6 75 -17.9 -0.2
18:40 1017 30.03 847 25.01 -14.3 6.2 75 -17.9 -0.1
18:45 1018 30.06 847 25.01 -14.3 6.3 75 -17.7 0.1
18:50 1018 30.06 847 25.01 -14.2 6.4 76 -17.7 0.2
18:55 1018 30.06 847 25.01 -14.2 6.4 77 -17.4 0.6
19:00 1018 30.06 847 25.01 -14.1 6.5 78 -17.2 1
19:05 1018 30.06 847 25.01 -14.2 6.5 79 -17.1 1.2
19:10 1018 30.06 847 25.01 -14.1 6.5 79 -17.1 1.2
19:15 1018 30.06 847 25.01 -14.2 6.5 78 -17.2 1
19:20 1018 30.06 847 25.01 -14.2 6.4 78 -17.3 0.8
19:25 1018 30.06 847 25.01 -14.3 6.3 77 -17.4 0.6
19:30 1018 30.06 847 25.01 -14.4 6 78 -17.4 0.6
19:35 1018 30.06 847 25.01 -14.5 5.9 80 -17.2 1
19:40 1018 30.06 847 25.01 -14.5 5.9 80 -17.2 1
19:45 1018 30.06 847 25.01 -14.6 5.6 81 -17.3 0.9
19:50 1018 30.06 847 25.01 -14.8 5.3 82 -17.3 0.8
19:55 1018 30.06 847 25.01 -14.8 5.5 82 -17.2 1.1
20:00 1018 30.06 847 25.01 -14.6 5.8 80 -17.2 1
20:05 1018 30.06 847 25.01 -14.6 5.7 81 -17.3 0.9
20:10 1018 30.06 847 25.01 -14.8 5.5 80 -17.5 0.4
20:15 1018 30.06 847 25.01 -14.9 5.3 81 -17.5 0.5
20:20 1018 30.06 847 25.01 -14.8 5.3 80 -17.5 0.4
20:25 1018 30.06 847 25.01 -14.9 5.1 81 -17.6 0.4
20:30 1018 30.06 847 25.01 -15.1 4.8 82 -17.6 0.4
20:35 1018 30.06 848 25.04 -15 5 81 -17.6 0.4
20:40 1018 30.06 848 25.04 -15 4.9 82 -17.4 0.7
20:45 1018 30.06 848 25.04 -15 5 80 -17.7 0.2
20:50 1019 30.09 848 25.04 -15.1 4.9 79 -18 -0.3
20:55 1019 30.09 848 25.04 -15 5 78 -18 -0.3
21:00 1019 30.09 848 25.04 -14.9 5.2 79 -17.8 -0.1
21:05 1019 30.09 848 25.04 -15 5 80 -17.7 0.1
21:10 1019 30.09 848 25.04 -15 5 81 -17.6 0.3
21:15 1019 30.09 848 25.04 -15 5 81 -17.6 0.3
21:20 1019 30.09 848 25.04 -15.2 4.7 82 -17.6 0.3
21:25 1019 30.09 848 25.04 -15.2 4.7 81 -17.8 0
21:30 1019 30.09 848 25.04 -15.1 4.8 79 -18 -0.3
21:35 1019 30.09 848 25.04 -15.2 4.7 79 -18.1 -0.5
21:40 1019 30.09 848 25.04 -15.3 4.5 79 -18.1 -0.6
21:45 1019 30.09 848 25.04 -15.3 4.4 79 -18.2 -0.7
21:50 1019 30.09 848 25.04 -15.5 4 80 -18.2 -0.7
21:55 1019 30.09 848 25.04 -15.6 3.9 81 -18.1 -0.6
22:00 1019 30.09 848 25.04 -15.5 4.2 81 -18 -0.4
22:05 1019 30.09 848 25.04 -15.4 4.4 81 -18 -0.3
22:10 1019 30.09 848 25.04 -15.3 4.4 81 -18 -0.3
22:15 1019 30.09 848 25.04 -15.4 4.4 80 -18.1 -0.6
22:20 1019 30.09 848 25.04 -15.5 4.1 81 -18.1 -0.5
22:25 1019 30.09 848 25.04 -15.5 4.2 81 -17.9 -0.3
22:30 1019 30.09 848 25.04 -15.3 4.5 81 -17.9 -0.2
22:35 1019 30.09 848 25.04 -15.3 4.5 82 -17.7 0.1
22:40 1019 30.09 848 25.04 -15.3 4.4 81 -17.8 -0.1
22:45 1019 30.09 848 25.04 -15.5 4.2 81 -18.1 -0.5
22:50 1019 30.09 848 25.04 -15.6 3.9 78 -18.6 -1.5
22:55 1019 30.09 849 25.07 -15.8 3.6 77 -19 -2.2
23:00 1019 30.09 849 25.07 -15.9 3.5 77 -19 -2.2
23:05 1019 30.09 849 25.07 -16 3.3 76 -19.3 -2.7
23:10 1019 30.09 849 25.07 -16.1 3.1 76 -19.4 -3
23:15 1019 30.09 849 25.07 -16.1 3 76 -19.4 -3
23:20 1019 30.09 849 25.07 -16.1 3.1 75 -19.5 -3.1
23:25 1020 30.12 849 25.07 -16.1 3 75 -19.5 -3.1
23:30 1020 30.12 849 25.07 -16.2 2.9 76 -19.5 -3.1
23:35 1020 30.12 849 25.07 -16.3 2.7 77 -19.5 -3
23:40 1020 30.12 849 25.07 -16.4 2.4 77 -19.6 -3.3
23:45 1020 30.12 849 25.07 -16.6 2.2 77 -19.7 -3.4
23:50 1020 30.12 849 25.07 -16.6 2.1 78 -19.7 -3.4
23:55 1020 30.12 849 25.07 -16.6 2.1 77 -19.7 -3.5
24:00 1020 30.12 849 25.07 -16.7 1.9 78 -19.6 -3.4